Corby, United Kingdom
Current Conditions -  °F | °C
As of 1:50 PM on Wednesday 28 Jan 2015 (Local Time) from EGXT Reporting Station
Few Clouds Few Clouds  
Wind Chill: 30°   Ceiling: Unl
Heat Index: 41°   Visibility: 6mi
Dew Point: 30°   Wind: 30mph
Humidity: 65%   Direction: 280°W
Pressure: 29.44"   Gusts: 43mph
Location:  52.51°N, 0.7°W
Report Text: EGXT 281350Z 28026G37KT 9999 FEW040 05/M01 Q0997 BLU
Loading
Personal Weather Stations






























Interactive Weather Map New forecast layout! Learn more

10-Day Weather Forecast

Advertisements
Track Severe Weather on mobile